Jay, FL (32565)

6:43 AM CST on January 26, 2015 (GMT -0600)
Jenkins Farm | Change Station
CLOSE
Current Station
Personal Weather Station
Location: Jay, FL
Elevation: 262 ft
Nearby Weather Stations

Elev 262 ft 30.95 °N, 87.13 °W | Updated 9 minutes ago

Partly Cloudy
Partly Cloudy
44.9 °F
Feels Like 40 °F
N
9.0
Wind Variable Wind from West
Gusts 12.0 mph

Today
High -- | Low -- °F
--% Chance of Precip.
Yesterday
High -- | Low -- °F
Precip. -- in
6:43 AM 5:18 PM
Waxing Crescent, 43% visible
Pressure 29.98 in
Visibility 10.0 miles
Clouds Mostly Cloudy 3800 ft
Windchill 40 °F
Dew Point 38 °F
Humidity 76%
Rainfall 0.00 in
Snow Depth Not available.
UV 0 out of 12
Pollen 6.30 out of 12
Air Quality Not available.
Flu Activity Not available.
SPECI KNSE 261241Z 30010KT 10SM BKN038 07/02 A2998 RMK AO2 T00670017 PNO $

More Conditions Fewer Conditions

Pressure 29.98 in
Visibility 10.0 miles
Clouds Mostly Cloudy 3800 ft
Windchill 40 °F
Dew Point 38 °F
Humidity 76%
Rainfall 0.00 in
Snow Depth Not available.
UV 0 out of 12
Pollen 6.30 out of 12
Air Quality Not available.
Flu Activity Not available.
SPECI KNSE 261241Z 30010KT 10SM BKN038 07/02 A2998 RMK AO2 T00670017 PNO $

More Conditions Fewer Conditions

10-Day Weather Forecast

Almanac

Astronomy

Jan. 26, 2015 Rise Set
Actual Time
Civil Twilight
Nautical Twilight
Astronomical Twilight
Moon
Length of Visible Light
Length of Day
Tomorrow will be .
, % of the Moon is Illuminated

Today's Extremes

State Highs State Lows

Community

WunderPhotos

Upload Photos

1,790,175 photos uploaded!

WunderBlogs® & News

Nearby

Air Quality

  Air Quality AQ Index Pollutant
Not available.

Snow Depth

Station Depth Elevation

Earthquake Activity

City Distance Mag. Time & Date
Minimum magnitude displayed is 2.5.

Coastal Water Temperatures

Place Temperature

Nearby Weather Stations